createdAt,value
2023-03-11T00:00:48.655Z,2.70
2023-03-11T00:03:20.065Z,2.28
2023-03-11T00:05:47.675Z,2.08
2023-03-11T00:08:20.523Z,3.28
2023-03-11T00:10:53.962Z,2.80
2023-03-11T00:13:22.414Z,3.72
2023-03-11T00:15:55.739Z,2.30
2023-03-11T00:18:27.128Z,2.30
2023-03-11T00:20:58.282Z,2.17
2023-03-11T00:23:27.498Z,2.92
2023-03-11T00:25:55.406Z,2.72
2023-03-11T00:28:26.037Z,3.03
2023-03-11T00:30:53.694Z,2.70
2023-03-11T00:33:20.817Z,2.85
2023-03-11T00:35:48.040Z,3.85
2023-03-11T00:38:17.342Z,3.85
2023-03-11T00:40:48.754Z,2.72
2023-03-11T00:43:17.159Z,2.97
2023-03-11T00:45:44.536Z,4.00
2023-03-11T00:48:14.070Z,2.40
2023-03-11T00:50:42.237Z,2.60
2023-03-11T00:53:12.230Z,3.30
2023-03-11T00:55:40.709Z,3.10
2023-03-11T00:58:12.426Z,2.58
2023-03-11T01:00:49.032Z,3.08
2023-03-11T01:03:16.492Z,3.10
2023-03-11T01:05:46.142Z,3.58
2023-03-11T01:08:13.273Z,3.13
2023-03-11T01:10:40.577Z,3.10
2023-03-11T01:13:07.880Z,2.67
2023-03-11T01:15:37.686Z,3.85
2023-03-11T01:18:06.677Z,5.05
2023-03-11T01:20:37.706Z,2.30
2023-03-11T01:23:06.883Z,3.67
2023-03-11T01:25:36.742Z,3.70
2023-03-11T01:28:05.968Z,2.83
2023-03-11T01:30:33.136Z,4.13
2023-03-11T01:33:01.013Z,4.35
2023-03-11T01:35:31.787Z,3.30
2023-03-11T01:37:59.828Z,3.90
2023-03-11T01:40:33.041Z,5.05
2023-03-11T01:43:07.935Z,4.03
2023-03-11T01:46:06.418Z,3.53
2023-03-11T01:48:33.990Z,2.80
2023-03-11T01:51:01.826Z,2.38
2023-03-11T01:53:29.580Z,4.88
2023-03-11T01:55:57.386Z,4.20
2023-03-11T01:58:32.669Z,4.28
2023-03-11T02:01:02.803Z,3.33
2023-03-11T02:03:37.362Z,3.15
2023-03-11T02:06:13.152Z,2.88
2023-03-11T02:08:43.636Z,4.15
2023-03-11T02:11:26.248Z,2.30
2023-03-11T02:14:00.907Z,4.30
2023-03-11T02:16:28.809Z,4.07
2023-03-11T02:19:02.894Z,3.15
2023-03-11T02:21:34.508Z,5.25
2023-03-11T02:24:17.402Z,4.50
2023-03-11T02:27:09.477Z,4.25
2023-03-11T02:29:38.552Z,4.95
2023-03-11T02:32:10.386Z,4.18
2023-03-11T02:34:42.227Z,4.18
2023-03-11T02:37:16.880Z,3.83
2023-03-11T02:40:36.291Z,5.28
2023-03-11T02:43:15.084Z,3.83
2023-03-11T02:45:46.578Z,3.33
2023-03-11T02:48:16.763Z,3.65
2023-03-11T02:50:47.269Z,3.28
2023-03-11T02:53:15.989Z,4.97
2023-03-11T02:55:43.686Z,4.18
2023-03-11T02:58:10.898Z,4.00
2023-03-11T03:00:38.405Z,5.05
2023-03-11T03:03:08.829Z,3.05
2023-03-11T03:05:37.194Z,3.33
2023-03-11T03:08:04.573Z,3.40
2023-03-11T03:10:32.007Z,3.20
2023-03-11T03:12:59.417Z,5.90
2023-03-11T03:15:26.880Z,4.10
2023-03-11T03:17:54.146Z,3.60
2023-03-11T03:20:22.784Z,3.95
2023-03-11T03:22:54.904Z,3.55
2023-03-11T03:25:26.631Z,3.50
2023-03-11T03:27:55.589Z,4.47
2023-03-11T03:30:23.492Z,4.55
2023-03-11T03:32:52.908Z,5.65
2023-03-11T03:35:21.389Z,5.28
2023-03-11T03:38:05.656Z,3.70
2023-03-11T03:40:33.825Z,4.88
2023-03-11T03:43:05.501Z,4.82
2023-03-11T03:45:34.618Z,4.90
2023-03-11T03:48:02.424Z,8.20
2023-03-11T03:50:33.703Z,4.20
2023-03-11T03:53:01.166Z,4.15
2023-03-11T03:55:28.418Z,3.92
2023-03-11T03:57:57.726Z,4.80
2023-03-11T04:00:28.841Z,5.13
2023-03-11T04:03:00.946Z,3.13
2023-03-11T04:05:37.488Z,7.30
2023-03-11T04:08:05.117Z,3.28
2023-03-11T04:10:32.691Z,6.15
2023-03-11T04:13:00.117Z,4.72
2023-03-11T04:15:28.099Z,6.22
2023-03-11T04:17:55.375Z,5.78
2023-03-11T04:20:23.240Z,5.72
2023-03-11T04:22:52.484Z,5.03
2023-03-11T04:25:22.624Z,5.07
2023-03-11T04:27:52.249Z,4.25
2023-03-11T04:30:20.759Z,5.57
2023-03-11T04:32:50.448Z,5.13
2023-03-11T04:35:18.334Z,6.75
2023-03-11T04:37:46.080Z,3.40
2023-03-11T04:40:15.053Z,3.17
2023-03-11T04:42:42.293Z,5.10
2023-03-11T04:45:11.230Z,4.35
2023-03-11T04:47:39.441Z,4.32
2023-03-11T04:50:07.922Z,4.32
2023-03-11T04:52:35.674Z,3.22
2023-03-11T04:55:04.290Z,4.50
2023-03-11T04:57:33.459Z,4.30
2023-03-11T05:00:00.948Z,4.40
2023-03-11T05:02:28.810Z,4.70
2023-03-11T05:04:59.986Z,3.53
2023-03-11T05:07:27.785Z,4.30
2023-03-11T05:09:55.809Z,4.07
2023-03-11T05:12:23.560Z,5.05
2023-03-11T05:14:53.485Z,5.78
2023-03-11T05:17:21.336Z,4.15
2023-03-11T05:19:51.672Z,6.55
2023-03-11T05:22:24.724Z,4.50
2023-03-11T05:24:52.392Z,6.60
2023-03-11T05:27:21.057Z,6.03
2023-03-11T05:29:52.500Z,4.43
2023-03-11T05:32:21.016Z,3.53
2023-03-11T05:34:50.064Z,3.97
2023-03-11T05:37:18.143Z,6.13
2023-03-11T05:39:47.360Z,5.55
2023-03-11T05:42:15.897Z,4.70
2023-03-11T05:44:43.404Z,5.90
2023-03-11T05:47:14.658Z,3.80
2023-03-11T05:49:42.090Z,4.70
2023-03-11T05:52:09.565Z,6.07
2023-03-11T05:54:37.305Z,4.95
2023-03-11T05:57:05.017Z,5.10
2023-03-11T05:59:35.424Z,6.65
2023-03-11T06:02:05.102Z,5.73
2023-03-11T06:04:32.474Z,4.28
2023-03-11T06:07:01.657Z,4.45
2023-03-11T06:09:32.669Z,7.78
2023-03-11T06:11:59.917Z,4.82
2023-03-11T06:14:39.407Z,5.13
2023-03-11T06:17:06.881Z,8.77
2023-03-11T06:19:34.205Z,4.72
2023-03-11T06:22:02.440Z,6.50
2023-03-11T06:24:30.532Z,6.03
2023-03-11T06:26:58.198Z,5.57
2023-03-11T06:29:29.147Z,5.05
2023-03-11T06:31:56.507Z,4.55
2023-03-11T06:34:23.917Z,5.15
2023-03-11T06:36:52.544Z,3.70
2023-03-11T06:39:19.842Z,6.63
2023-03-11T06:41:49.257Z,6.43
2023-03-11T06:44:17.278Z,5.82
2023-03-11T06:46:44.683Z,7.30
2023-03-11T06:49:12.658Z,7.03
2023-03-11T06:51:42.626Z,3.70
2023-03-11T06:54:11.532Z,4.28
2023-03-11T06:56:38.743Z,6.50
2023-03-11T06:59:08.220Z,5.72
2023-03-11T07:01:36.808Z,5.50
2023-03-11T07:04:06.501Z,7.15
2023-03-11T07:06:36.330Z,6.75
2023-03-11T07:09:09.120Z,5.97
2023-03-11T07:11:41.300Z,9.45
2023-03-11T07:14:13.140Z,7.18
2023-03-11T07:16:45.324Z,7.50
2023-03-11T07:19:27.303Z,9.73
2023-03-11T07:21:54.539Z,8.05
2023-03-11T07:24:21.856Z,4.35
2023-03-11T07:26:49.437Z,5.75
2023-03-11T07:29:16.673Z,7.32
2023-03-11T07:31:44.526Z,7.68
2023-03-11T07:34:13.271Z,8.32
2023-03-11T07:36:42.915Z,7.03
2023-03-11T07:39:17.872Z,12.75
2023-03-11T07:41:46.265Z,7.22
2023-03-11T07:44:16.863Z,8.80
2023-03-11T07:46:46.812Z,7.78
2023-03-11T07:49:15.143Z,7.90
2023-03-11T07:51:43.892Z,8.45
2023-03-11T07:54:13.249Z,6.95
2023-03-11T07:56:41.610Z,5.05
2023-03-11T07:59:10.071Z,5.60
2023-03-11T08:01:40.601Z,6.15
2023-03-11T08:04:14.530Z,4.55
2023-03-11T08:06:46.695Z,5.93
2023-03-11T08:09:15.474Z,4.65
2023-03-11T08:11:42.974Z,5.90
2023-03-11T08:14:10.748Z,4.40
2023-03-11T08:16:40.919Z,6.55
2023-03-11T08:19:11.561Z,5.10
2023-03-11T08:21:38.869Z,5.35
2023-03-11T08:24:07.143Z,5.10
2023-03-11T08:26:34.274Z,4.82
2023-03-11T08:29:01.476Z,6.00
2023-03-11T08:31:33.195Z,3.45
2023-03-11T08:34:06.103Z,6.95
2023-03-11T08:36:34.744Z,6.72
2023-03-11T08:39:02.184Z,7.22
2023-03-11T08:41:29.490Z,5.13
2023-03-11T08:43:57.042Z,3.30
2023-03-11T08:46:37.258Z,4.53
2023-03-11T08:49:06.597Z,8.02
2023-03-11T08:51:36.506Z,5.22
2023-03-11T08:54:05.027Z,7.00
2023-03-11T08:56:32.247Z,5.28
2023-03-11T08:58:59.464Z,6.03
2023-03-11T09:01:26.863Z,5.78
2023-03-11T09:03:54.185Z,4.95
2023-03-11T09:06:22.294Z,6.88
2023-03-11T09:08:49.999Z,4.57
2023-03-11T09:11:19.116Z,6.15
2023-03-11T09:13:46.395Z,7.03
2023-03-11T09:16:22.071Z,5.60
2023-03-11T09:18:49.789Z,5.32
2023-03-11T09:21:17.626Z,4.88
2023-03-11T09:23:44.852Z,5.72
2023-03-11T09:26:13.725Z,5.35
2023-03-11T09:28:42.166Z,4.82
2023-03-11T09:31:09.974Z,4.70
2023-03-11T09:33:42.848Z,6.35
2023-03-11T09:36:19.061Z,7.10
2023-03-11T09:38:47.995Z,5.20
2023-03-11T09:41:18.091Z,6.07
2023-03-11T09:44:48.595Z,4.85
2023-03-11T09:48:22.666Z,4.50
2023-03-11T09:51:31.457Z,3.90
2023-03-11T09:54:18.881Z,7.43
2023-03-11T09:56:47.144Z,5.70
2023-03-11T09:59:32.862Z,6.18
2023-03-11T10:02:03.996Z,6.07
2023-03-11T10:04:49.608Z,4.15
2023-03-11T10:07:24.194Z,5.50
2023-03-11T10:09:58.142Z,4.63
2023-03-11T10:13:03.251Z,5.22
2023-03-11T10:15:54.002Z,4.35
2023-03-11T10:19:16.636Z,2.97
2023-03-11T10:22:20.006Z,3.67
2023-03-11T10:25:16.307Z,4.35
2023-03-11T10:27:57.687Z,5.35
2023-03-11T10:30:48.325Z,4.72
2023-03-11T10:33:29.138Z,4.57
2023-03-11T10:36:05.612Z,3.10
2023-03-11T10:38:46.562Z,2.13
2023-03-11T10:41:34.521Z,3.22
2023-03-11T10:44:15.140Z,3.17
2023-03-11T10:46:42.528Z,5.25
2023-03-11T10:49:18.333Z,4.70
2023-03-11T10:51:52.900Z,4.70
2023-03-11T10:54:45.919Z,6.50
2023-03-11T10:57:38.937Z,4.90
2023-03-11T11:00:17.235Z,5.18
2023-03-11T11:03:21.864Z,5.53
2023-03-11T11:06:06.687Z,4.45
2023-03-11T11:08:34.658Z,6.57
2023-03-11T11:11:05.532Z,3.38
2023-03-11T11:13:35.487Z,6.07
2023-03-11T11:16:21.137Z,3.55
2023-03-11T11:18:49.921Z,4.40
2023-03-11T11:21:43.413Z,6.40
2023-03-11T11:24:45.473Z,4.90
2023-03-11T11:27:29.266Z,2.78
2023-03-11T11:30:08.925Z,4.47
2023-03-11T11:32:38.061Z,4.40
2023-03-11T11:35:15.597Z,5.15
2023-03-11T11:38:02.516Z,3.25
2023-03-11T11:40:33.007Z,5.18
2023-03-11T11:43:16.482Z,3.60
2023-03-11T11:45:55.350Z,4.32
2023-03-11T11:48:41.159Z,3.60
2023-03-11T11:51:26.457Z,3.20
2023-03-11T11:54:39.453Z,4.45
2023-03-11T11:57:17.488Z,4.50
2023-03-11T11:59:44.993Z,5.28
2023-03-11T12:03:25.450Z,4.20
2023-03-11T12:05:59.202Z,3.17
2023-03-11T12:09:01.276Z,3.47
2023-03-11T12:12:04.766Z,4.38
2023-03-11T12:15:35.337Z,3.10
2023-03-11T12:18:17.055Z,3.40
2023-03-11T12:20:54.972Z,4.68
2023-03-11T12:23:56.752Z,3.90
2023-03-11T12:26:33.868Z,3.40
2023-03-11T12:29:30.242Z,4.53
2023-03-11T12:32:01.783Z,2.83
2023-03-11T12:34:35.294Z,4.50
2023-03-11T12:37:14.078Z,3.42
2023-03-11T12:39:41.535Z,4.68
2023-03-11T12:42:11.597Z,5.45
2023-03-11T12:44:40.877Z,3.28
2023-03-11T12:47:07.965Z,3.13
2023-03-11T12:49:41.743Z,6.97
2023-03-11T12:52:12.010Z,3.78
2023-03-11T12:54:44.896Z,2.92
2023-03-11T12:57:18.500Z,5.82
2023-03-11T13:00:27.082Z,3.50
2023-03-11T13:03:31.705Z,3.97
2023-03-11T13:07:08.081Z,3.88
2023-03-11T13:09:35.600Z,5.38
2023-03-11T13:12:02.832Z,4.35
2023-03-11T13:14:34.417Z,5.38
2023-03-11T13:17:25.878Z,5.20
2023-03-11T13:19:59.084Z,6.10
2023-03-11T13:23:01.653Z,2.88
2023-03-11T13:25:43.087Z,3.85
2023-03-11T13:29:24.662Z,4.05
2023-03-11T13:32:41.723Z,4.07
2023-03-11T13:35:44.019Z,4.82
2023-03-11T13:38:41.080Z,3.45
2023-03-11T13:41:35.636Z,5.93
2023-03-11T13:44:24.206Z,4.95
2023-03-11T13:47:01.754Z,5.20
2023-03-11T13:50:00.743Z,6.78
2023-03-11T13:52:34.948Z,5.43
2023-03-11T13:55:26.931Z,4.95
2023-03-11T13:57:58.196Z,2.83
2023-03-11T14:00:31.324Z,4.90
2023-03-11T14:03:04.012Z,3.63
2023-03-11T14:05:35.988Z,3.50
2023-03-11T14:08:27.298Z,3.10
2023-03-11T14:11:17.755Z,4.30
2023-03-11T14:13:50.832Z,5.22
2023-03-11T14:16:44.129Z,4.07
2023-03-11T14:19:19.254Z,4.65
2023-03-11T14:21:51.962Z,4.47
2023-03-11T14:24:28.844Z,5.05
2023-03-11T14:27:00.417Z,5.15
2023-03-11T14:29:36.245Z,4.40
2023-03-11T14:32:35.393Z,4.03
2023-03-11T14:35:19.274Z,3.85
2023-03-11T14:37:46.503Z,6.07
2023-03-11T14:40:42.065Z,5.25
2023-03-11T14:43:12.493Z,4.07
2023-03-11T14:45:43.039Z,5.00
2023-03-11T14:48:42.715Z,3.70
2023-03-11T14:51:33.464Z,3.58
2023-03-11T14:54:22.621Z,4.63
2023-03-11T14:57:02.516Z,4.25
2023-03-11T14:59:34.414Z,6.32
2023-03-11T15:02:41.909Z,4.43
2023-03-11T15:05:49.416Z,3.97
2023-03-11T15:08:21.619Z,4.43
2023-03-11T15:11:25.310Z,5.22
2023-03-11T15:13:54.900Z,5.63
2023-03-11T15:16:36.100Z,3.88
2023-03-11T15:19:28.205Z,7.25
2023-03-11T15:22:06.194Z,5.15
2023-03-11T15:24:34.795Z,7.88
2023-03-11T15:27:40.187Z,4.22
2023-03-11T15:30:31.662Z,3.72
2023-03-11T15:32:59.194Z,5.07
2023-03-11T15:35:31.041Z,5.80
2023-03-11T15:38:25.696Z,3.20
2023-03-11T15:40:57.587Z,4.82
2023-03-11T15:43:41.120Z,3.50
2023-03-11T15:46:11.242Z,6.45
2023-03-11T15:48:38.731Z,9.20
2023-03-11T15:51:06.354Z,7.20
2023-03-11T15:53:33.658Z,6.25
2023-03-11T15:56:20.236Z,5.95
2023-03-11T15:58:47.543Z,6.10
2023-03-11T16:01:14.769Z,4.15
2023-03-11T16:03:42.204Z,6.03
2023-03-11T16:06:09.942Z,3.85
2023-03-11T16:08:37.119Z,5.55
2023-03-11T16:11:04.766Z,5.88
2023-03-11T16:13:34.296Z,8.27
2023-03-11T16:16:20.710Z,6.28
2023-03-11T16:18:47.995Z,6.65
2023-03-11T16:21:21.528Z,5.22
2023-03-11T16:23:52.173Z,5.05
2023-03-11T16:26:22.770Z,5.20
2023-03-11T16:28:50.116Z,4.80
2023-03-11T16:31:17.644Z,5.32
2023-03-11T16:33:45.103Z,4.68
2023-03-11T16:36:12.705Z,4.88
2023-03-11T16:38:50.289Z,7.00
2023-03-11T16:41:18.292Z,7.72
2023-03-11T16:43:46.222Z,5.32
2023-03-11T16:46:13.551Z,4.03
2023-03-11T16:48:41.074Z,4.57
2023-03-11T16:51:09.022Z,5.95
2023-03-11T16:53:36.327Z,6.32
2023-03-11T16:56:06.826Z,9.45
2023-03-11T16:58:33.973Z,5.68
2023-03-11T17:01:01.148Z,7.43
2023-03-11T17:03:34.449Z,5.65
2023-03-11T17:06:08.194Z,6.35
2023-03-11T17:08:35.486Z,6.25
2023-03-11T17:11:02.650Z,6.10
2023-03-11T17:13:29.757Z,5.13
2023-03-11T17:16:00.803Z,5.78
2023-03-11T17:18:29.221Z,4.20
2023-03-11T17:20:56.435Z,5.13
2023-03-11T17:23:24.328Z,5.10
2023-03-11T17:25:51.798Z,7.20
2023-03-11T17:28:18.963Z,4.55
2023-03-11T17:30:46.520Z,7.32
2023-03-11T17:33:13.802Z,10.23
2023-03-11T17:35:41.163Z,6.05
2023-03-11T17:38:08.722Z,4.20
2023-03-11T17:40:37.468Z,5.85
2023-03-11T17:43:04.654Z,5.93
2023-03-11T17:45:31.796Z,6.72
2023-03-11T17:47:58.957Z,7.97
2023-03-11T17:50:26.470Z,5.10
2023-03-11T17:52:53.867Z,5.85
2023-03-11T17:55:20.996Z,7.93
2023-03-11T17:57:48.264Z,10.98
2023-03-11T18:00:16.132Z,8.50
2023-03-11T18:02:43.412Z,7.53
2023-03-11T18:05:10.792Z,8.90
2023-03-11T18:07:39.179Z,5.88
2023-03-11T18:10:09.226Z,10.10
2023-03-11T18:12:37.030Z,9.88
2023-03-11T18:15:11.934Z,5.35
2023-03-11T18:17:39.153Z,5.47
2023-03-11T18:20:07.991Z,9.52
2023-03-11T18:22:35.549Z,7.68
2023-03-11T18:25:02.817Z,5.03
2023-03-11T18:27:30.032Z,7.10
2023-03-11T18:29:57.238Z,9.40
2023-03-11T18:32:24.681Z,6.63
2023-03-11T18:34:52.180Z,9.43
2023-03-11T18:37:19.411Z,9.98
2023-03-11T18:39:46.539Z,7.65
2023-03-11T18:42:15.873Z,8.15
2023-03-11T18:44:43.202Z,9.48
2023-03-11T18:47:10.537Z,7.40
2023-03-11T18:49:37.811Z,9.07
2023-03-11T18:52:05.330Z,8.15
2023-03-11T18:54:32.488Z,8.00
2023-03-11T18:56:59.786Z,8.48
2023-03-11T18:59:27.793Z,7.22
2023-03-11T19:01:55.581Z,9.15
2023-03-11T19:04:23.130Z,6.93
2023-03-11T19:06:50.495Z,9.65
2023-03-11T19:09:21.232Z,7.28
2023-03-11T19:11:48.556Z,7.68
2023-03-11T19:14:15.847Z,12.65
2023-03-11T19:16:43.606Z,9.35
2023-03-11T19:19:12.022Z,16.15
2023-03-11T19:21:39.406Z,10.38
2023-03-11T19:24:07.087Z,11.15
2023-03-11T19:26:45.826Z,8.43
2023-03-11T19:29:14.932Z,12.02
2023-03-11T19:31:43.838Z,10.00
2023-03-11T19:34:11.585Z,9.73
2023-03-11T19:36:39.517Z,10.57
2023-03-11T19:39:07.254Z,10.43
2023-03-11T19:41:34.786Z,14.48
2023-03-11T19:44:04.108Z,11.00
2023-03-11T19:46:34.526Z,12.90
2023-03-11T19:49:03.879Z,12.40
2023-03-11T19:51:46.505Z,12.02
2023-03-11T19:54:16.317Z,11.02
2023-03-11T19:56:43.857Z,12.05
2023-03-11T19:59:11.260Z,13.48
2023-03-11T20:01:38.828Z,11.88
2023-03-11T20:04:06.274Z,12.07
2023-03-11T20:06:34.221Z,10.93
2023-03-11T20:09:01.487Z,10.45
2023-03-11T20:11:28.640Z,10.23
2023-03-11T20:13:56.324Z,11.43
2023-03-11T20:16:23.715Z,10.00
2023-03-11T20:18:51.761Z,8.63
2023-03-11T20:21:19.410Z,13.43
2023-03-11T20:23:48.790Z,9.70
2023-03-11T20:26:19.143Z,10.70
2023-03-11T20:28:46.827Z,11.98
2023-03-11T20:31:25.257Z,12.52
2023-03-11T20:33:54.008Z,11.35
2023-03-11T20:36:27.104Z,10.40
2023-03-11T20:38:56.142Z,13.18
2023-03-11T20:41:28.161Z,13.25
2023-03-11T20:43:57.548Z,12.23
2023-03-11T20:46:25.297Z,11.95
2023-03-11T20:48:52.679Z,9.40
2023-03-11T20:51:21.169Z,10.65
2023-03-11T20:53:49.157Z,10.80
2023-03-11T20:56:22.327Z,10.45
2023-03-11T20:58:51.357Z,11.05
2023-03-11T21:01:26.080Z,15.82
2023-03-11T21:03:57.529Z,8.68
2023-03-11T21:06:36.371Z,10.00
2023-03-11T21:09:10.860Z,11.43
2023-03-11T21:11:38.379Z,9.82
2023-03-11T21:14:08.334Z,11.70
2023-03-11T21:16:37.705Z,9.48
2023-03-11T21:19:08.181Z,12.77
2023-03-11T21:21:36.271Z,7.47
2023-03-11T21:24:04.456Z,14.25
2023-03-11T21:26:34.586Z,13.65
2023-03-11T21:29:02.800Z,17.75
2023-03-11T21:31:30.575Z,16.17
2023-03-11T21:34:01.195Z,15.10
2023-03-11T21:36:30.119Z,15.50
2023-03-11T21:38:57.549Z,11.30
2023-03-11T21:41:27.857Z,13.55
2023-03-11T21:43:57.707Z,17.25
2023-03-11T21:46:31.331Z,19.00
2023-03-11T21:49:01.678Z,14.88
2023-03-11T21:51:29.723Z,18.25
2023-03-11T21:53:57.578Z,16.05
2023-03-11T21:56:25.230Z,14.55
2023-03-11T21:58:53.897Z,14.80
2023-03-11T22:01:21.843Z,11.00
2023-03-11T22:03:49.640Z,13.43
2023-03-11T22:06:17.121Z,12.23
2023-03-11T22:08:44.629Z,12.85
2023-03-11T22:11:22.004Z,13.50
2023-03-11T22:13:52.845Z,12.32
2023-03-11T22:16:23.136Z,14.70
2023-03-11T22:18:52.111Z,10.25
2023-03-11T22:21:20.751Z,13.18
2023-03-11T22:23:48.459Z,10.88
2023-03-11T22:26:16.265Z,12.43
2023-03-11T22:28:44.365Z,10.48
2023-03-11T22:31:15.582Z,10.63
2023-03-11T22:33:43.201Z,13.07
2023-03-11T22:36:10.817Z,12.82
2023-03-11T22:38:41.952Z,10.57
2023-03-11T22:41:09.336Z,12.90
2023-03-11T22:43:37.840Z,13.75
2023-03-11T22:46:07.566Z,16.42
2023-03-11T22:48:35.268Z,21.73
2023-03-11T22:51:03.614Z,13.98
2023-03-11T22:53:31.141Z,13.85
2023-03-11T22:55:58.531Z,14.02
2023-03-11T22:58:25.668Z,12.18
2023-03-11T23:00:52.878Z,12.63
2023-03-11T23:03:20.272Z,12.40
2023-03-11T23:05:47.436Z,13.95
2023-03-11T23:08:16.796Z,11.98
2023-03-11T23:10:47.483Z,11.95
2023-03-11T23:13:16.120Z,11.02
2023-03-11T23:15:46.757Z,13.35
2023-03-11T23:18:16.260Z,13.52
2023-03-11T23:21:02.577Z,16.23
2023-03-11T23:23:30.358Z,12.13
2023-03-11T23:25:57.709Z,12.25
2023-03-11T23:28:24.871Z,10.43
2023-03-11T23:30:52.075Z,12.48
2023-03-11T23:33:19.436Z,16.58
2023-03-11T23:35:46.647Z,13.82
2023-03-11T23:38:13.834Z,13.45
2023-03-11T23:40:41.595Z,11.55
2023-03-11T23:43:08.890Z,14.32
2023-03-11T23:45:36.079Z,13.57
2023-03-11T23:48:03.321Z,14.00
2023-03-11T23:50:30.439Z,13.45
2023-03-11T23:52:57.643Z,11.77
2023-03-11T23:55:24.738Z,12.52
2023-03-11T23:57:51.866Z,13.57
